Detall de PIREP

Printer-friendly versionPDF version

[2017/09/11 15:04:00]
Flight IATA:CT0001
Pilot Number:042
Company ICAO:CAT
Aircraft Type:B738/F
PAX:85
Departing Airport: LEGE
Destination Airport: LEVC
Alternate Airport:LEPA
Online: VATSIM
Route:MAMUK B31 BCN UM985 SOPET
Flight Level:F330
No Slew and time accel
No pause
Crash detect
Detect pilot in Cockpit between each 30 and 45 minutes
15:04 Zero fuel Weight: 121806 Lbs, Fuel Weight: 46056 Lbs
15:04 VATSIM:LEGE 111430Z 15005KT 110V190 9999 FEW050 SCT058 25/11 Q1009
15:04 VATSIM:LEVC 111430Z 24015KT 210V270 CAVOK 37/06 Q1008 NOSIG
15:12 Parking Brakes off
15:18 Take-off
15:18 Take off Weight: 167028 Lbs
15:18 Wind: 163º @ 005 Knots Heading: 194º
15:18 POS N41º 53´ 39´´ E002º 45´ 29´´
15:18 Flaps:4 at 178 Knots
15:18 Gear Up: 179 Knots
15:18 Flaps:3 at 196 Knots
15:18 Flaps:2 at 209 Knots
15:19 Flaps:1 at 244 Knots
15:19 Flaps:0 at 246 Knots
15:33 Wind:289º@038 Knots Heading: 231º Ground Speed: 444 Knots Altitude 27076 ft
15:48 Wind:280º@039 Knots Heading: 232º Ground Speed: 335 Knots Altitude 18864 ft
15:54 Gear Down: 246 Knots
15:55 Gear Up: 230 Knots
15:55 Flaps:1 at 230 Knots
15:55 Gear Down: 230 Knots
15:55 Gear Up: 228 Knots
15:55 Flaps:2 at 227 Knots
15:56 Flaps:3 at 195 Knots
15:56 Gear Down: 195 Knots
15:57 Flaps:4 at 203 Knots
15:57 Flaps:5 at 201 Knots
15:57 Flaps:6 at 181 Knots
15:58 Flaps:7 at 168 Knots
15:58 Flaps:8 at 158 Knots
16:01 TouchDown:Rate -139 ft/min Speed: 145 Knots
16:01 VATSIM:LEVC 111530Z 25018KT CAVOK 37/05 Q1007 NOSIG
16:01 Land
16:01 Wind:249º@018 Knots
16:01 Heading: 301º
16:01 Flight Duration: 00:43
16:01 Landing Weight: 161724 Lbs
16:01 POS N39º 29´ 25´´ W000º 29´ 08´´
16:06 Parking brakes on
16:06 Block to Block Duration: 00:54
16:06 Final Fuel: 39570 Lbls
16:06 Spent Fuel: 6485 Lbls
16:06 Flight Length: 246 NM
16:06 TOD Land Length: 246 NM

Exportar CSV

Powered by Drupal - Modified by Danger4k